Aviation Digital Data Service (ADDS)

Output produced by METARs form (0456 UTC 01 October 2016)
found at http://www.aviationweather.gov/adds/metars/
 
METAR text: EPKK 010430Z VRB02KT 9999 BKN065 10/09 Q1015
Conditions at: EPKK (KRAKOW/BALICE , PL) observed 0430 UTC 01 October 2016
Temperature: 10.0°C (50°F)
Dewpoint: 9.0°C (48°F) [RH = 93%]
Pressure (altimeter): 29.97 inches Hg (1015.0 mb)
Winds: variable direction winds at 2 MPH (2 knots; 1.0 m/s)
Visibility: 6 or more miles (10+ km)
Ceiling: 6500 feet AGL
Clouds: broken clouds at 6500 feet AGL
Weather: no significant weather observed at this time

Forecast for: EPKK (KRAKOW/BALICE , PL)
Text: TAF EPKK 302330Z 0100/0124 VRB02KT CAVOK
Forecast period: 0000 UTC 01 October 2016 to 0000 UTC 02 October 2016
Forecast type: FROM: standard forecast or significant change
Winds: variable direction winds at 2 MPH (2 knots; 1.0 m/s)
Visibility: 6 or more miles (10+ km)
Clouds: not forecast
Weather: NSW  (no significant weather)
Text: PROB40
Forecast period: 0200 to 0700 UTC 01 October 2016
Forecast type: TEMPORARY: The following changes expected for less than half the time period
Visibility: 1.86 miles (2.99 km)
Weather: BR  (mist)